sensor_id;sensor_type;location;lat;lon;timestamp;P1;durP1;ratioP1;P2;durP2;ratioP2
71790;SDS011;59638;52.126;5.434;2022-08-24T00:01:22;6.10;;;4.40;;
71790;SDS011;59638;52.126;5.434;2022-08-24T00:03:48;4.13;;;3.72;;
71790;SDS011;59638;52.126;5.434;2022-08-24T00:06:21;5.30;;;4.32;;
71790;SDS011;59638;52.126;5.434;2022-08-24T00:08:48;6.22;;;4.00;;
71790;SDS011;59638;52.126;5.434;2022-08-24T00:11:17;5.57;;;4.80;;
71790;SDS011;59638;52.126;5.434;2022-08-24T00:13:45;5.03;;;4.50;;
71790;SDS011;59638;52.126;5.434;2022-08-24T00:16:12;5.95;;;5.43;;
71790;SDS011;59638;52.126;5.434;2022-08-24T00:18:40;6.97;;;6.07;;
71790;SDS011;59638;52.126;5.434;2022-08-24T00:21:06;8.40;;;5.30;;
71790;SDS011;59638;52.126;5.434;2022-08-24T00:23:33;6.70;;;6.10;;
71790;SDS011;59638;52.126;5.434;2022-08-24T00:26:01;6.23;;;5.73;;
71790;SDS011;59638;52.126;5.434;2022-08-24T00:28:28;6.30;;;5.80;;
71790;SDS011;59638;52.126;5.434;2022-08-24T00:30:55;6.65;;;6.10;;
71790;SDS011;59638;52.126;5.434;2022-08-24T00:33:21;5.93;;;5.43;;
71790;SDS011;59638;52.126;5.434;2022-08-24T00:35:48;5.32;;;4.82;;
71790;SDS011;59638;52.126;5.434;2022-08-24T00:38:15;5.47;;;5.00;;
71790;SDS011;59638;52.126;5.434;2022-08-24T00:40:43;5.47;;;5.00;;
71790;SDS011;59638;52.126;5.434;2022-08-24T00:43:12;4.70;;;4.30;;
71790;SDS011;59638;52.126;5.434;2022-08-24T00:45:41;5.93;;;4.47;;
71790;SDS011;59638;52.126;5.434;2022-08-24T00:48:22;5.80;;;5.35;;
71790;SDS011;59638;52.126;5.434;2022-08-24T00:50:53;5.97;;;5.40;;
71790;SDS011;59638;52.126;5.434;2022-08-24T00:53:28;9.85;;;6.20;;
71790;SDS011;59638;52.126;5.434;2022-08-24T00:56:02;6.00;;;5.60;;
71790;SDS011;59638;52.126;5.434;2022-08-24T00:58:36;5.95;;;5.53;;
71790;SDS011;59638;52.126;5.434;2022-08-24T01:01:08;6.82;;;6.20;;
71790;SDS011;59638;52.126;5.434;2022-08-24T01:03:36;6.43;;;5.90;;
71790;SDS011;59638;52.126;5.434;2022-08-24T01:06:03;7.03;;;6.32;;
71790;SDS011;59638;52.126;5.434;2022-08-24T01:08:30;6.35;;;5.82;;
71790;SDS011;59638;52.126;5.434;2022-08-24T01:10:58;7.03;;;5.95;;
71790;SDS011;59638;52.126;5.434;2022-08-24T01:13:27;6.38;;;5.88;;
71790;SDS011;59638;52.126;5.434;2022-08-24T01:15:57;6.57;;;5.83;;
71790;SDS011;59638;52.126;5.434;2022-08-24T01:18:26;7.53;;;6.63;;
71790;SDS011;59638;52.126;5.434;2022-08-24T01:23:51;6.15;;;5.65;;
71790;SDS011;59638;52.126;5.434;2022-08-24T01:26:25;6.60;;;5.93;;
71790;SDS011;59638;52.126;5.434;2022-08-24T01:29:03;6.40;;;5.87;;
71790;SDS011;59638;52.126;5.434;2022-08-24T01:31:34;6.63;;;6.05;;
71790;SDS011;59638;52.126;5.434;2022-08-24T01:34:01;7.18;;;6.50;;
71790;SDS011;59638;52.126;5.434;2022-08-24T01:36:35;6.55;;;5.85;;
71790;SDS011;59638;52.126;5.434;2022-08-24T01:39:14;6.28;;;5.85;;
71790;SDS011;59638;52.126;5.434;2022-08-24T01:41:47;6.67;;;6.03;;
71790;SDS011;59638;52.126;5.434;2022-08-24T01:44:13;5.93;;;5.43;;
71790;SDS011;59638;52.126;5.434;2022-08-24T01:46:44;6.55;;;5.95;;
71790;SDS011;59638;52.126;5.434;2022-08-24T01:49:14;7.13;;;6.60;;
71790;SDS011;59638;52.126;5.434;2022-08-24T01:51:41;4.80;;;4.50;;
71790;SDS011;59638;52.126;5.434;2022-08-24T01:54:08;5.03;;;3.60;;
71790;SDS011;59638;52.126;5.434;2022-08-24T01:56:34;4.53;;;3.78;;
71790;SDS011;59638;52.126;5.434;2022-08-24T01:59:03;4.40;;;3.83;;
71790;SDS011;59638;52.126;5.434;2022-08-24T02:01:31;5.32;;;4.20;;
71790;SDS011;59638;52.126;5.434;2022-08-24T02:04:03;4.35;;;3.33;;
71790;SDS011;59638;52.126;5.434;2022-08-24T02:06:33;5.30;;;4.80;;
71790;SDS011;59638;52.126;5.434;2022-08-24T02:09:00;4.93;;;4.55;;
71790;SDS011;59638;52.126;5.434;2022-08-24T02:11:27;3.90;;;3.60;;
71790;SDS011;59638;52.126;5.434;2022-08-24T02:13:54;3.92;;;3.63;;
71790;SDS011;59638;52.126;5.434;2022-08-24T02:16:20;5.18;;;4.78;;
71790;SDS011;59638;52.126;5.434;2022-08-24T02:18:47;5.33;;;5.03;;
71790;SDS011;59638;52.126;5.434;2022-08-24T02:21:14;6.35;;;5.63;;
71790;SDS011;59638;52.126;5.434;2022-08-24T02:23:41;4.97;;;4.57;;
71790;SDS011;59638;52.126;5.434;2022-08-24T02:26:09;4.88;;;4.38;;
71790;SDS011;59638;52.126;5.434;2022-08-24T02:28:36;6.68;;;4.65;;
71790;SDS011;59638;52.126;5.434;2022-08-24T02:31:04;7.17;;;4.50;;
71790;SDS011;59638;52.126;5.434;2022-08-24T02:33:36;7.10;;;5.53;;
71790;SDS011;59638;52.126;5.434;2022-08-24T02:36:04;6.47;;;5.88;;
71790;SDS011;59638;52.126;5.434;2022-08-24T02:38:50;11.50;;;6.32;;
71790;SDS011;59638;52.126;5.434;2022-08-24T02:41:19;7.25;;;6.70;;
71790;SDS011;59638;52.126;5.434;2022-08-24T02:43:45;7.07;;;6.40;;
71790;SDS011;59638;52.126;5.434;2022-08-24T02:46:19;6.57;;;6.00;;
71790;SDS011;59638;52.126;5.434;2022-08-24T02:48:46;6.20;;;5.70;;
71790;SDS011;59638;52.126;5.434;2022-08-24T02:51:33;7.28;;;6.47;;
71790;SDS011;59638;52.126;5.434;2022-08-24T02:54:10;7.15;;;6.25;;
71790;SDS011;59638;52.126;5.434;2022-08-24T02:56:37;6.80;;;6.27;;
71790;SDS011;59638;52.126;5.434;2022-08-24T02:59:03;5.55;;;5.15;;
71790;SDS011;59638;52.126;5.434;2022-08-24T03:01:30;8.90;;;5.72;;
71790;SDS011;59638;52.126;5.434;2022-08-24T03:03:57;6.45;;;5.40;;
71790;SDS011;59638;52.126;5.434;2022-08-24T03:06:23;9.80;;;6.28;;
71790;SDS011;59638;52.126;5.434;2022-08-24T03:08:50;6.03;;;5.43;;
71790;SDS011;59638;52.126;5.434;2022-08-24T03:11:21;5.97;;;5.38;;
71790;SDS011;59638;52.126;5.434;2022-08-24T03:13:53;5.22;;;4.72;;
71790;SDS011;59638;52.126;5.434;2022-08-24T03:16:20;6.18;;;5.07;;
71790;SDS011;59638;52.126;5.434;2022-08-24T03:18:46;4.78;;;4.32;;
71790;SDS011;59638;52.126;5.434;2022-08-24T03:21:13;4.50;;;4.20;;
71790;SDS011;59638;52.126;5.434;2022-08-24T03:23:40;4.55;;;4.25;;
71790;SDS011;59638;52.126;5.434;2022-08-24T03:26:06;4.22;;;3.92;;
71790;SDS011;59638;52.126;5.434;2022-08-24T03:28:33;5.40;;;4.95;;
71790;SDS011;59638;52.126;5.434;2022-08-24T03:30:59;4.50;;;4.20;;
71790;SDS011;59638;52.126;5.434;2022-08-24T03:33:26;5.60;;;5.07;;
71790;SDS011;59638;52.126;5.434;2022-08-24T03:35:52;5.90;;;5.40;;
71790;SDS011;59638;52.126;5.434;2022-08-24T03:38:19;4.80;;;4.50;;
71790;SDS011;59638;52.126;5.434;2022-08-24T03:40:46;5.40;;;4.43;;
71790;SDS011;59638;52.126;5.434;2022-08-24T03:43:12;5.68;;;5.20;;
71790;SDS011;59638;52.126;5.434;2022-08-24T03:45:59;5.40;;;4.20;;
71790;SDS011;59638;52.126;5.434;2022-08-24T03:48:28;5.72;;;4.95;;
71790;SDS011;59638;52.126;5.434;2022-08-24T03:50:55;6.05;;;5.35;;
71790;SDS011;59638;52.126;5.434;2022-08-24T03:53:22;6.20;;;5.60;;
71790;SDS011;59638;52.126;5.434;2022-08-24T03:55:49;6.13;;;5.72;;
71790;SDS011;59638;52.126;5.434;2022-08-24T03:58:15;6.20;;;5.67;;
71790;SDS011;59638;52.126;5.434;2022-08-24T04:00:42;6.00;;;5.35;;
71790;SDS011;59638;52.126;5.434;2022-08-24T04:03:09;5.63;;;5.13;;
71790;SDS011;59638;52.126;5.434;2022-08-24T04:05:37;6.07;;;5.47;;
71790;SDS011;59638;52.126;5.434;2022-08-24T04:08:05;5.43;;;5.03;;
71790;SDS011;59638;52.126;5.434;2022-08-24T04:10:32;6.07;;;5.67;;
71790;SDS011;59638;52.126;5.434;2022-08-24T04:12:59;5.22;;;4.82;;
71790;SDS011;59638;52.126;5.434;2022-08-24T04:15:27;4.85;;;4.45;;
71790;SDS011;59638;52.126;5.434;2022-08-24T04:17:56;13.70;;;5.65;;
71790;SDS011;59638;52.126;5.434;2022-08-24T04:20:23;6.50;;;4.22;;
71790;SDS011;59638;52.126;5.434;2022-08-24T04:22:50;5.07;;;4.27;;
71790;SDS011;59638;52.126;5.434;2022-08-24T04:25:18;7.47;;;3.78;;
71790;SDS011;59638;52.126;5.434;2022-08-24T04:27:50;4.85;;;4.43;;
71790;SDS011;59638;52.126;5.434;2022-08-24T04:30:16;3.85;;;3.53;;
71790;SDS011;59638;52.126;5.434;2022-08-24T04:32:43;4.20;;;3.80;;
71790;SDS011;59638;52.126;5.434;2022-08-24T04:35:09;4.70;;;3.87;;
71790;SDS011;59638;52.126;5.434;2022-08-24T04:37:36;5.07;;;4.53;;
71790;SDS011;59638;52.126;5.434;2022-08-24T04:40:03;4.50;;;4.05;;
71790;SDS011;59638;52.126;5.434;2022-08-24T04:42:30;7.35;;;5.18;;
71790;SDS011;59638;52.126;5.434;2022-08-24T04:44:58;6.00;;;5.40;;
71790;SDS011;59638;52.126;5.434;2022-08-24T04:47:24;8.67;;;6.80;;
71790;SDS011;59638;52.126;5.434;2022-08-24T04:49:51;7.32;;;5.32;;
71790;SDS011;59638;52.126;5.434;2022-08-24T04:52:17;7.70;;;5.38;;
71790;SDS011;59638;52.126;5.434;2022-08-24T04:54:44;5.68;;;5.18;;
71790;SDS011;59638;52.126;5.434;2022-08-24T04:57:10;6.03;;;5.53;;
71790;SDS011;59638;52.126;5.434;2022-08-24T04:59:43;8.03;;;5.77;;
71790;SDS011;59638;52.126;5.434;2022-08-24T05:02:09;7.50;;;6.10;;
71790;SDS011;59638;52.126;5.434;2022-08-24T05:04:36;6.03;;;5.63;;
71790;SDS011;59638;52.126;5.434;2022-08-24T05:07:02;6.25;;;5.65;;
71790;SDS011;59638;52.126;5.434;2022-08-24T05:09:29;6.25;;;5.65;;
71790;SDS011;59638;52.126;5.434;2022-08-24T05:11:56;5.27;;;4.73;;
71790;SDS011;59638;52.126;5.434;2022-08-24T05:14:23;5.72;;;5.28;;
71790;SDS011;59638;52.126;5.434;2022-08-24T05:16:53;7.53;;;5.05;;
71790;SDS011;59638;52.126;5.434;2022-08-24T05:19:21;7.68;;;5.28;;
71790;SDS011;59638;52.126;5.434;2022-08-24T05:21:48;5.55;;;5.15;;
71790;SDS011;59638;52.126;5.434;2022-08-24T05:24:15;6.40;;;5.80;;
71790;SDS011;59638;52.126;5.434;2022-08-24T05:26:42;5.70;;;5.20;;
71790;SDS011;59638;52.126;5.434;2022-08-24T05:29:08;5.35;;;4.95;;
71790;SDS011;59638;52.126;5.434;2022-08-24T05:31:35;4.82;;;4.43;;
71790;SDS011;59638;52.126;5.434;2022-08-24T05:34:02;4.50;;;4.20;;
71790;SDS011;59638;52.126;5.434;2022-08-24T05:36:31;4.47;;;4.00;;
71790;SDS011;59638;52.126;5.434;2022-08-24T05:38:59;4.97;;;4.40;;
71790;SDS011;59638;52.126;5.434;2022-08-24T05:41:27;5.20;;;4.72;;
71790;SDS011;59638;52.126;5.434;2022-08-24T05:43:55;5.38;;;4.68;;
71790;SDS011;59638;52.126;5.434;2022-08-24T05:46:21;8.93;;;4.78;;
71790;SDS011;59638;52.126;5.434;2022-08-24T05:48:48;5.27;;;4.90;;
71790;SDS011;59638;52.126;5.434;2022-08-24T05:51:18;5.72;;;4.72;;
71790;SDS011;59638;52.126;5.434;2022-08-24T05:53:45;5.43;;;5.03;;
71790;SDS011;59638;52.126;5.434;2022-08-24T05:56:13;5.63;;;4.90;;
71790;SDS011;59638;52.126;5.434;2022-08-24T05:58:40;5.68;;;5.18;;
71790;SDS011;59638;52.126;5.434;2022-08-24T06:01:15;6.57;;;5.97;;
71790;SDS011;59638;52.126;5.434;2022-08-24T06:03:44;5.32;;;4.90;;
71790;SDS011;59638;52.126;5.434;2022-08-24T06:06:11;7.18;;;6.47;;
71790;SDS011;59638;52.126;5.434;2022-08-24T06:08:39;7.32;;;6.72;;
71790;SDS011;59638;52.126;5.434;2022-08-24T06:11:08;9.25;;;8.35;;
71790;SDS011;59638;52.126;5.434;2022-08-24T06:13:35;11.13;;;7.80;;
71790;SDS011;59638;52.126;5.434;2022-08-24T06:16:12;9.65;;;8.40;;
71790;SDS011;59638;52.126;5.434;2022-08-24T06:18:48;7.55;;;6.85;;
71790;SDS011;59638;52.126;5.434;2022-08-24T06:21:17;13.38;;;8.10;;
71790;SDS011;59638;52.126;5.434;2022-08-24T06:23:46;10.70;;;9.57;;
71790;SDS011;59638;52.126;5.434;2022-08-24T06:26:13;19.07;;;13.10;;
71790;SDS011;59638;52.126;5.434;2022-08-24T06:28:58;12.25;;;10.77;;
71790;SDS011;59638;52.126;5.434;2022-08-24T06:31:25;13.15;;;10.65;;
71790;SDS011;59638;52.126;5.434;2022-08-24T06:33:53;13.48;;;12.18;;
71790;SDS011;59638;52.126;5.434;2022-08-24T06:36:20;16.92;;;14.30;;
71790;SDS011;59638;52.126;5.434;2022-08-24T06:38:48;19.17;;;14.70;;
71790;SDS011;59638;52.126;5.434;2022-08-24T06:41:15;14.70;;;12.95;;
71790;SDS011;59638;52.126;5.434;2022-08-24T06:43:41;16.98;;;13.75;;
71790;SDS011;59638;52.126;5.434;2022-08-24T06:46:08;18.13;;;15.48;;
71790;SDS011;59638;52.126;5.434;2022-08-24T06:48:34;16.48;;;14.52;;
71790;SDS011;59638;52.126;5.434;2022-08-24T06:51:01;15.70;;;14.20;;
71790;SDS011;59638;52.126;5.434;2022-08-24T06:53:37;19.30;;;15.13;;
71790;SDS011;59638;52.126;5.434;2022-08-24T06:56:04;15.50;;;13.43;;
71790;SDS011;59638;52.126;5.434;2022-08-24T06:58:30;17.05;;;15.27;;
71790;SDS011;59638;52.126;5.434;2022-08-24T07:00:57;16.40;;;13.95;;
71790;SDS011;59638;52.126;5.434;2022-08-24T07:03:32;20.07;;;13.43;;
71790;SDS011;59638;52.126;5.434;2022-08-24T07:05:58;16.08;;;14.45;;
71790;SDS011;59638;52.126;5.434;2022-08-24T07:08:27;16.88;;;13.13;;
71790;SDS011;59638;52.126;5.434;2022-08-24T07:10:53;15.82;;;14.13;;
71790;SDS011;59638;52.126;5.434;2022-08-24T07:13:20;20.33;;;14.10;;
71790;SDS011;59638;52.126;5.434;2022-08-24T07:15:49;22.37;;;14.70;;
71790;SDS011;59638;52.126;5.434;2022-08-24T07:18:16;20.55;;;13.90;;
71790;SDS011;59638;52.126;5.434;2022-08-24T07:20:45;14.75;;;13.48;;
71790;SDS011;59638;52.126;5.434;2022-08-24T07:23:12;15.77;;;13.30;;
71790;SDS011;59638;52.126;5.434;2022-08-24T07:25:40;15.55;;;13.95;;
71790;SDS011;59638;52.126;5.434;2022-08-24T07:28:14;15.77;;;13.03;;
71790;SDS011;59638;52.126;5.434;2022-08-24T07:30:41;18.45;;;12.93;;
71790;SDS011;59638;52.126;5.434;2022-08-24T07:33:08;15.07;;;12.70;;
71790;SDS011;59638;52.126;5.434;2022-08-24T07:35:36;19.45;;;13.48;;
71790;SDS011;59638;52.126;5.434;2022-08-24T07:38:03;24.13;;;14.05;;
71790;SDS011;59638;52.126;5.434;2022-08-24T07:40:32;16.73;;;14.40;;
71790;SDS011;59638;52.126;5.434;2022-08-24T07:43:20;15.60;;;14.02;;
71790;SDS011;59638;52.126;5.434;2022-08-24T07:45:47;15.93;;;14.20;;
71790;SDS011;59638;52.126;5.434;2022-08-24T07:48:14;17.48;;;14.18;;
71790;SDS011;59638;52.126;5.434;2022-08-24T07:50:41;18.05;;;15.18;;
71790;SDS011;59638;52.126;5.434;2022-08-24T07:53:07;14.47;;;13.10;;
71790;SDS011;59638;52.126;5.434;2022-08-24T07:55:39;17.08;;;13.55;;
71790;SDS011;59638;52.126;5.434;2022-08-24T07:58:11;16.67;;;13.55;;
71790;SDS011;59638;52.126;5.434;2022-08-24T08:00:37;18.85;;;14.90;;
71790;SDS011;59638;52.126;5.434;2022-08-24T08:03:04;19.20;;;15.65;;
71790;SDS011;59638;52.126;5.434;2022-08-24T08:05:31;22.50;;;18.77;;
71790;SDS011;59638;52.126;5.434;2022-08-24T08:08:03;23.20;;;18.02;;
71790;SDS011;59638;52.126;5.434;2022-08-24T08:10:29;24.15;;;18.05;;
71790;SDS011;59638;52.126;5.434;2022-08-24T08:12:56;19.95;;;16.05;;
71790;SDS011;59638;52.126;5.434;2022-08-24T08:15:22;18.50;;;16.15;;
71790;SDS011;59638;52.126;5.434;2022-08-24T08:17:49;17.80;;;13.43;;
71790;SDS011;59638;52.126;5.434;2022-08-24T08:20:27;16.35;;;14.75;;
71790;SDS011;59638;52.126;5.434;2022-08-24T08:22:53;22.35;;;14.43;;
71790;SDS011;59638;52.126;5.434;2022-08-24T08:25:38;16.05;;;14.50;;
71790;SDS011;59638;52.126;5.434;2022-08-24T08:28:07;14.95;;;13.27;;
71790;SDS011;59638;52.126;5.434;2022-08-24T08:30:51;14.23;;;12.90;;
71790;SDS011;59638;52.126;5.434;2022-08-24T08:33:19;13.95;;;12.13;;
71790;SDS011;59638;52.126;5.434;2022-08-24T08:35:45;13.25;;;11.70;;
71790;SDS011;59638;52.126;5.434;2022-08-24T08:38:14;12.88;;;11.90;;
71790;SDS011;59638;52.126;5.434;2022-08-24T08:46:02;10.65;;;9.52;;
71790;SDS011;59638;52.126;5.434;2022-08-24T08:49:12;9.75;;;8.52;;
71790;SDS011;59638;52.126;5.434;2022-08-24T09:00:16;9.00;;;8.18;;
71790;SDS011;59638;52.126;5.434;2022-08-24T09:05:57;7.72;;;5.75;;
71790;SDS011;59638;52.126;5.434;2022-08-24T09:11:45;4.07;;;3.67;;
71790;SDS011;59638;52.126;5.434;2022-08-24T09:31:45;4.15;;;3.50;;
71790;SDS011;59638;52.126;5.434;2022-08-24T09:34:26;6.28;;;2.78;;
71790;SDS011;59638;52.126;5.434;2022-08-24T09:37:10;2.58;;;2.15;;
71790;SDS011;59638;52.126;5.434;2022-08-24T09:50:59;2.65;;;1.50;;
71790;SDS011;59638;52.126;5.434;2022-08-24T09:59:23;2.95;;;1.85;;
71790;SDS011;59638;52.126;5.434;2022-08-24T10:08:11;2.30;;;1.23;;
71790;SDS011;59638;52.126;5.434;2022-08-24T10:10:40;1.35;;;1.10;;
71790;SDS011;59638;52.126;5.434;2022-08-24T10:18:38;4.63;;;1.25;;
71790;SDS011;59638;52.126;5.434;2022-08-24T10:24:06;1.83;;;1.60;;
71790;SDS011;59638;52.126;5.434;2022-08-24T10:27:01;2.50;;;1.50;;
71790;SDS011;59638;52.126;5.434;2022-08-24T10:35:12;3.20;;;1.90;;
71790;SDS011;59638;52.126;5.434;2022-08-24T10:43:47;1.50;;;1.20;;
71790;SDS011;59638;52.126;5.434;2022-08-24T10:46:47;1.20;;;0.93;;
71790;SDS011;59638;52.126;5.434;2022-08-24T10:49:38;5.13;;;1.47;;
71790;SDS011;59638;52.126;5.434;2022-08-24T10:55:12;1.20;;;1.10;;
71790;SDS011;59638;52.126;5.434;2022-08-24T10:57:58;4.50;;;1.20;;
71790;SDS011;59638;52.126;5.434;2022-08-24T11:00:35;2.03;;;1.27;;
71790;SDS011;59638;52.126;5.434;2022-08-24T11:03:12;1.53;;;1.43;;
71790;SDS011;59638;52.126;5.434;2022-08-24T11:05:44;1.42;;;1.33;;
71790;SDS011;59638;52.126;5.434;2022-08-24T11:08:20;2.95;;;1.38;;
71790;SDS011;59638;52.126;5.434;2022-08-24T11:11:06;2.95;;;1.38;;
71790;SDS011;59638;52.126;5.434;2022-08-24T11:13:37;4.20;;;1.48;;
71790;SDS011;59638;52.126;5.434;2022-08-24T11:16:22;1.00;;;0.90;;
71790;SDS011;59638;52.126;5.434;2022-08-24T11:18:52;8.75;;;1.40;;
71790;SDS011;59638;52.126;5.434;2022-08-24T11:21:30;12.48;;;1.65;;
71790;SDS011;59638;52.126;5.434;2022-08-24T11:24:08;1.95;;;1.15;;
71790;SDS011;59638;52.126;5.434;2022-08-24T11:32:37;1.90;;;1.00;;
71790;SDS011;59638;52.126;5.434;2022-08-24T11:35:09;2.85;;;1.52;;
71790;SDS011;59638;52.126;5.434;2022-08-24T11:37:43;1.75;;;1.65;;
71790;SDS011;59638;52.126;5.434;2022-08-24T11:40:10;2.42;;;1.38;;
71790;SDS011;59638;52.126;5.434;2022-08-24T11:46:54;1.73;;;1.63;;
71790;SDS011;59638;52.126;5.434;2022-08-24T11:48:56;2.38;;;1.52;;
71790;SDS011;59638;52.126;5.434;2022-08-24T11:51:39;1.83;;;1.27;;
71790;SDS011;59638;52.126;5.434;2022-08-24T11:57:10;1.70;;;1.60;;
71790;SDS011;59638;52.126;5.434;2022-08-24T12:02:39;2.30;;;1.50;;
71790;SDS011;59638;52.126;5.434;2022-08-24T12:05:27;2.08;;;1.98;;
71790;SDS011;59638;52.126;5.434;2022-08-24T12:08:09;2.20;;;1.38;;
71790;SDS011;59638;52.126;5.434;2022-08-24T12:13:57;3.67;;;1.40;;
71790;SDS011;59638;52.126;5.434;2022-08-24T12:16:29;3.72;;;1.17;;
71790;SDS011;59638;52.126;5.434;2022-08-24T12:19:18;3.15;;;1.83;;
71790;SDS011;59638;52.126;5.434;2022-08-24T12:21:50;1.83;;;1.35;;
71790;SDS011;59638;52.126;5.434;2022-08-24T12:24:34;2.70;;;1.03;;
71790;SDS011;59638;52.126;5.434;2022-08-24T12:27:11;1.38;;;1.15;;
71790;SDS011;59638;52.126;5.434;2022-08-24T12:29:55;1.60;;;1.50;;
71790;SDS011;59638;52.126;5.434;2022-08-24T12:38:15;0.80;;;0.70;;
71790;SDS011;59638;52.126;5.434;2022-08-24T12:40:49;1.30;;;1.20;;
71790;SDS011;59638;52.126;5.434;2022-08-24T12:43:30;1.00;;;0.70;;
71790;SDS011;59638;52.126;5.434;2022-08-24T12:46:01;2.50;;;0.60;;
71790;SDS011;59638;52.126;5.434;2022-08-24T12:48:38;1.48;;;0.63;;
71790;SDS011;59638;52.126;5.434;2022-08-24T12:59:52;2.85;;;0.50;;
71790;SDS011;59638;52.126;5.434;2022-08-24T13:02:38;4.15;;;0.50;;
71790;SDS011;59638;52.126;5.434;2022-08-24T13:05:14;3.73;;;0.63;;
71790;SDS011;59638;52.126;5.434;2022-08-24T13:07:45;0.98;;;0.60;;
71790;SDS011;59638;52.126;5.434;2022-08-24T13:12:51;2.70;;;0.77;;
71790;SDS011;59638;52.126;5.434;2022-08-24T13:17:52;0.80;;;0.60;;
71790;SDS011;59638;52.126;5.434;2022-08-24T13:20:55;1.33;;;0.50;;
71790;SDS011;59638;52.126;5.434;2022-08-24T13:23:22;2.05;;;0.73;;
71790;SDS011;59638;52.126;5.434;2022-08-24T13:25:54;1.95;;;0.80;;
71790;SDS011;59638;52.126;5.434;2022-08-24T13:28:42;1.35;;;0.55;;
71790;SDS011;59638;52.126;5.434;2022-08-24T13:31:32;0.63;;;0.50;;
71790;SDS011;59638;52.126;5.434;2022-08-24T13:36:42;0.93;;;0.50;;
71790;SDS011;59638;52.126;5.434;2022-08-24T13:45:15;1.90;;;0.50;;
71790;SDS011;59638;52.126;5.434;2022-08-24T13:47:50;3.42;;;1.58;;
71790;SDS011;59638;52.126;5.434;2022-08-24T13:50:40;1.00;;;0.50;;
71790;SDS011;59638;52.126;5.434;2022-08-24T13:53:15;1.83;;;0.55;;
71790;SDS011;59638;52.126;5.434;2022-08-24T14:01:54;1.20;;;0.40;;
71790;SDS011;59638;52.126;5.434;2022-08-24T14:04:46;1.98;;;0.43;;
71790;SDS011;59638;52.126;5.434;2022-08-24T14:13:24;1.00;;;0.50;;
71790;SDS011;59638;52.126;5.434;2022-08-24T14:22:15;1.20;;;0.85;;
71790;SDS011;59638;52.126;5.434;2022-08-24T14:25:12;0.85;;;0.63;;
71790;SDS011;59638;52.126;5.434;2022-08-24T14:27:40;0.60;;;0.60;;
71790;SDS011;59638;52.126;5.434;2022-08-24T14:32:45;2.92;;;0.45;;
71790;SDS011;59638;52.126;5.434;2022-08-24T14:52:09;1.17;;;0.52;;
71790;SDS011;59638;52.126;5.434;2022-08-24T14:54:41;1.00;;;0.80;;
71790;SDS011;59638;52.126;5.434;2022-08-24T14:57:20;1.38;;;0.80;;
71790;SDS011;59638;52.126;5.434;2022-08-24T15:00:06;2.40;;;0.55;;
71790;SDS011;59638;52.126;5.434;2022-08-24T15:08:32;2.13;;;0.83;;
71790;SDS011;59638;52.126;5.434;2022-08-24T15:10:56;2.22;;;1.10;;
71790;SDS011;59638;52.126;5.434;2022-08-24T15:16:04;1.63;;;0.80;;
71790;SDS011;59638;52.126;5.434;2022-08-24T15:18:40;1.13;;;0.60;;
71790;SDS011;59638;52.126;5.434;2022-08-24T15:29:51;3.33;;;0.50;;
71790;SDS011;59638;52.126;5.434;2022-08-24T15:32:37;1.42;;;0.60;;
71790;SDS011;59638;52.126;5.434;2022-08-24T15:35:20;3.33;;;0.57;;
71790;SDS011;59638;52.126;5.434;2022-08-24T15:37:49;1.98;;;0.80;;
71790;SDS011;59638;52.126;5.434;2022-08-24T15:40:20;2.55;;;0.60;;
71790;SDS011;59638;52.126;5.434;2022-08-24T15:42:47;2.33;;;0.60;;
71790;SDS011;59638;52.126;5.434;2022-08-24T15:45:16;1.38;;;0.50;;
71790;SDS011;59638;52.126;5.434;2022-08-24T15:47:45;1.83;;;0.60;;
71790;SDS011;59638;52.126;5.434;2022-08-24T15:52:59;3.20;;;1.15;;
71790;SDS011;59638;52.126;5.434;2022-08-24T15:55:37;2.97;;;0.55;;
71790;SDS011;59638;52.126;5.434;2022-08-24T15:58:24;3.40;;;0.38;;
71790;SDS011;59638;52.126;5.434;2022-08-24T16:00:52;2.50;;;1.00;;
71790;SDS011;59638;52.126;5.434;2022-08-24T16:03:45;1.30;;;0.77;;
71790;SDS011;59638;52.126;5.434;2022-08-24T16:09:00;1.20;;;0.88;;
71790;SDS011;59638;52.126;5.434;2022-08-24T16:14:26;1.77;;;0.50;;
71790;SDS011;59638;52.126;5.434;2022-08-24T16:16:56;1.38;;;0.82;;
71790;SDS011;59638;52.126;5.434;2022-08-24T16:19:27;3.42;;;0.77;;
71790;SDS011;59638;52.126;5.434;2022-08-24T16:22:03;1.10;;;0.52;;
71790;SDS011;59638;52.126;5.434;2022-08-24T16:24:39;1.77;;;0.55;;
71790;SDS011;59638;52.126;5.434;2022-08-24T16:27:08;1.10;;;0.50;;
71790;SDS011;59638;52.126;5.434;2022-08-24T16:35:13;2.22;;;0.38;;
71790;SDS011;59638;52.126;5.434;2022-08-24T16:37:42;0.90;;;0.75;;
71790;SDS011;59638;52.126;5.434;2022-08-24T16:40:08;0.87;;;0.87;;
71790;SDS011;59638;52.126;5.434;2022-08-24T16:42:36;2.33;;;0.88;;
71790;SDS011;59638;52.126;5.434;2022-08-24T16:45:05;0.90;;;0.60;;
71790;SDS011;59638;52.126;5.434;2022-08-24T16:47:35;1.38;;;1.00;;
71790;SDS011;59638;52.126;5.434;2022-08-24T16:50:02;2.38;;;0.75;;
71790;SDS011;59638;52.126;5.434;2022-08-24T16:52:30;1.53;;;0.57;;
71790;SDS011;59638;52.126;5.434;2022-08-24T16:54:57;2.00;;;0.57;;
71790;SDS011;59638;52.126;5.434;2022-08-24T16:57:26;1.30;;;0.77;;
71790;SDS011;59638;52.126;5.434;2022-08-24T16:59:55;12.27;;;1.73;;
71790;SDS011;59638;52.126;5.434;2022-08-24T17:02:22;0.93;;;0.52;;
71790;SDS011;59638;52.126;5.434;2022-08-24T17:04:50;3.77;;;0.80;;
71790;SDS011;59638;52.126;5.434;2022-08-24T17:07:19;1.17;;;1.08;;
71790;SDS011;59638;52.126;5.434;2022-08-24T17:09:49;1.17;;;0.52;;
71790;SDS011;59638;52.126;5.434;2022-08-24T17:12:15;3.10;;;0.70;;
71790;SDS011;59638;52.126;5.434;2022-08-24T17:14:42;0.93;;;0.70;;
71790;SDS011;59638;52.126;5.434;2022-08-24T17:17:10;2.57;;;0.90;;
71790;SDS011;59638;52.126;5.434;2022-08-24T17:19:42;1.40;;;0.70;;
71790;SDS011;59638;52.126;5.434;2022-08-24T17:22:09;1.13;;;0.70;;
71790;SDS011;59638;52.126;5.434;2022-08-24T17:24:41;4.30;;;0.80;;
71790;SDS011;59638;52.126;5.434;2022-08-24T17:27:08;3.78;;;2.78;;
71790;SDS011;59638;52.126;5.434;2022-08-24T17:29:35;3.23;;;1.13;;
71790;SDS011;59638;52.126;5.434;2022-08-24T17:32:02;1.85;;;1.10;;
71790;SDS011;59638;52.126;5.434;2022-08-24T17:34:28;2.45;;;0.80;;
71790;SDS011;59638;52.126;5.434;2022-08-24T17:36:55;2.38;;;0.80;;
71790;SDS011;59638;52.126;5.434;2022-08-24T17:39:22;3.78;;;0.60;;
71790;SDS011;59638;52.126;5.434;2022-08-24T17:41:50;2.93;;;0.70;;
71790;SDS011;59638;52.126;5.434;2022-08-24T17:44:19;2.63;;;0.35;;
71790;SDS011;59638;52.126;5.434;2022-08-24T17:46:50;1.08;;;0.60;;
71790;SDS011;59638;52.126;5.434;2022-08-24T17:49:18;1.20;;;0.60;;
71790;SDS011;59638;52.126;5.434;2022-08-24T17:51:45;1.40;;;0.60;;
71790;SDS011;59638;52.126;5.434;2022-08-24T17:54:11;1.30;;;1.20;;
71790;SDS011;59638;52.126;5.434;2022-08-24T17:56:38;2.17;;;1.60;;
71790;SDS011;59638;52.126;5.434;2022-08-24T17:59:07;2.10;;;1.48;;
71790;SDS011;59638;52.126;5.434;2022-08-24T18:01:50;1.73;;;1.17;;
71790;SDS011;59638;52.126;5.434;2022-08-24T18:04:20;1.52;;;0.50;;
71790;SDS011;59638;52.126;5.434;2022-08-24T18:06:50;3.57;;;0.50;;
71790;SDS011;59638;52.126;5.434;2022-08-24T18:09:18;1.25;;;0.65;;
71790;SDS011;59638;52.126;5.434;2022-08-24T18:11:51;1.90;;;0.70;;
71790;SDS011;59638;52.126;5.434;2022-08-24T18:14:18;3.65;;;0.50;;
71790;SDS011;59638;52.126;5.434;2022-08-24T18:16:44;0.70;;;0.43;;
71790;SDS011;59638;52.126;5.434;2022-08-24T18:19:19;0.90;;;0.57;;
71790;SDS011;59638;52.126;5.434;2022-08-24T18:21:49;1.40;;;0.50;;
71790;SDS011;59638;52.126;5.434;2022-08-24T18:24:16;5.22;;;1.48;;
71790;SDS011;59638;52.126;5.434;2022-08-24T18:26:43;0.90;;;0.45;;
71790;SDS011;59638;52.126;5.434;2022-08-24T18:29:17;2.50;;;0.60;;